createdAt,value
2018-10-06T00:01:05.152Z,1.40
2018-10-06T00:11:09.755Z,1.40
2018-10-06T00:21:14.443Z,1.40
2018-10-06T00:31:19.832Z,1.70
2018-10-06T00:41:24.443Z,1.23
2018-10-06T00:51:29.103Z,1.57
2018-10-06T01:01:33.945Z,1.30
2018-10-06T01:11:38.678Z,1.40
2018-10-06T01:21:43.371Z,1.40
2018-10-06T01:31:49.058Z,1.37
2018-10-06T01:41:53.680Z,1.40
2018-10-06T01:51:58.365Z,1.43
2018-10-06T02:02:03.112Z,1.50
2018-10-06T02:12:08.348Z,1.40
2018-10-06T02:22:13.029Z,1.50
2018-10-06T02:32:17.763Z,1.40
2018-10-06T02:42:22.560Z,1.40
2018-10-06T02:52:27.225Z,1.40
2018-10-06T03:02:31.912Z,1.40
2018-10-06T03:12:36.623Z,1.40
2018-10-06T03:22:42.341Z,1.60
2018-10-06T03:32:46.913Z,1.37
2018-10-06T03:42:52.754Z,1.33
2018-10-06T03:52:57.469Z,1.23
2018-10-06T04:03:02.217Z,1.30
2018-10-06T04:13:07.507Z,1.30
2018-10-06T04:23:12.456Z,1.50
2018-10-06T04:33:17.243Z,1.50
2018-10-06T04:43:21.869Z,1.40
2018-10-06T04:53:26.565Z,1.50
2018-10-06T05:03:31.295Z,1.60
2018-10-06T05:13:35.888Z,1.50
2018-10-06T05:23:40.687Z,1.60
2018-10-06T05:33:45.376Z,1.30
2018-10-06T05:43:49.948Z,1.50
2018-10-06T05:53:54.535Z,1.50
2018-10-06T06:03:59.113Z,1.47
2018-10-06T06:14:03.792Z,1.50
2018-10-06T06:24:08.491Z,1.50
2018-10-06T06:34:13.350Z,1.50
2018-10-06T06:44:18.026Z,1.60
2018-10-06T06:54:22.660Z,1.57
2018-10-06T07:04:27.481Z,1.50
2018-10-06T07:14:32.331Z,1.30
2018-10-06T07:24:37.091Z,1.50
2018-10-06T07:34:41.915Z,1.43
2018-10-06T07:44:46.840Z,1.57
2018-10-06T07:54:51.613Z,1.33
2018-10-06T08:04:56.244Z,1.30
2018-10-06T08:15:00.954Z,1.30
2018-10-06T08:25:06.037Z,1.43
2018-10-06T08:35:10.710Z,1.50
2018-10-06T08:45:15.468Z,1.60
2018-10-06T08:55:20.072Z,1.20
2018-10-06T09:05:24.771Z,1.30
2018-10-06T09:15:29.413Z,1.30
2018-10-06T09:25:34.004Z,1.30
2018-10-06T09:35:38.617Z,1.50
2018-10-06T09:45:43.217Z,1.30
2018-10-06T09:55:48.013Z,1.40
2018-10-06T10:05:54.684Z,1.20
2018-10-06T10:15:59.419Z,1.30
2018-10-06T10:26:04.137Z,1.30
2018-10-06T10:36:09.145Z,1.30
2018-10-06T10:46:14.768Z,1.30
2018-10-06T10:56:19.444Z,1.30
2018-10-06T11:06:24.190Z,1.50
2018-10-06T11:16:28.904Z,1.40
2018-10-06T11:26:33.613Z,1.30
2018-10-06T11:36:38.162Z,1.33
2018-10-06T11:46:42.977Z,1.40
2018-10-06T11:56:47.597Z,1.30
2018-10-06T12:06:52.403Z,1.10
2018-10-06T12:16:57.215Z,1.40
2018-10-06T12:27:02.051Z,1.20
2018-10-06T12:37:07.112Z,1.30
2018-10-06T12:47:11.855Z,1.30
2018-10-06T12:57:16.500Z,1.30
2018-10-06T13:07:21.836Z,1.20
2018-10-06T13:17:26.499Z,1.20
2018-10-06T13:27:31.336Z,1.00
2018-10-06T13:37:36.926Z,1.20
2018-10-06T13:47:41.669Z,1.10
2018-10-06T13:57:46.781Z,1.10
2018-10-06T14:07:51.520Z,1.20
2018-10-06T14:17:57.033Z,1.23
2018-10-06T14:28:02.860Z,1.30
2018-10-06T14:38:07.577Z,1.20
2018-10-06T14:48:12.404Z,1.20
2018-10-06T14:58:18.044Z,1.00
2018-10-06T15:08:22.844Z,1.00
2018-10-06T15:18:27.537Z,1.10
2018-10-06T15:28:32.291Z,1.00
2018-10-06T15:38:36.872Z,1.20
2018-10-06T15:48:41.509Z,1.20
2018-10-06T15:58:46.118Z,1.00
2018-10-06T16:08:51.236Z,1.20
2018-10-06T16:18:55.992Z,1.10
2018-10-06T16:29:00.687Z,1.10
2018-10-06T16:39:06.449Z,1.20
2018-10-06T16:49:11.232Z,1.03
2018-10-06T16:59:15.947Z,1.00
2018-10-06T17:09:20.648Z,1.20
2018-10-06T17:19:25.250Z,1.10
2018-10-06T17:29:29.891Z,1.00
2018-10-06T17:39:35.567Z,1.23
2018-10-06T17:49:40.412Z,1.20
2018-10-06T17:59:45.032Z,1.00
2018-10-06T18:09:49.709Z,1.10
2018-10-06T18:19:55.400Z,1.00
2018-10-06T18:30:00.109Z,1.10
2018-10-06T18:40:04.834Z,1.20
2018-10-06T18:50:09.408Z,1.07
2018-10-06T19:00:14.097Z,1.13
2018-10-06T19:10:18.954Z,1.30
2018-10-06T19:20:23.718Z,1.23
2018-10-06T19:30:28.350Z,1.10
2018-10-06T19:40:33.040Z,1.07
2018-10-06T19:50:37.816Z,1.20
2018-10-06T20:00:42.559Z,1.20
2018-10-06T20:10:47.450Z,1.13
2018-10-06T20:20:53.199Z,1.20
2018-10-06T20:30:58.105Z,1.20
2018-10-06T20:41:02.777Z,1.30
2018-10-06T20:51:07.401Z,1.10
2018-10-06T21:01:12.109Z,1.10
2018-10-06T21:11:16.974Z,1.10
2018-10-06T21:21:21.718Z,1.07
2018-10-06T21:31:26.541Z,1.10
2018-10-06T21:41:31.140Z,1.27
2018-10-06T21:51:35.995Z,1.07
2018-10-06T22:01:40.733Z,1.30
2018-10-06T22:11:45.416Z,1.10
2018-10-06T22:21:50.003Z,1.20
2018-10-06T22:31:54.646Z,1.20
2018-10-06T22:41:59.232Z,1.30
2018-10-06T22:52:04.029Z,1.27
2018-10-06T23:02:08.765Z,1.17
2018-10-06T23:12:13.384Z,1.13
2018-10-06T23:22:18.116Z,1.07
2018-10-06T23:32:22.933Z,1.10
2018-10-06T23:42:27.640Z,0.90
2018-10-06T23:52:32.248Z,1.10
